Flight Track Log - Related Links

Times and Time Zones

All times are in EDT time to prevent confusion due to time zone crossing. See the DAL1117 flight status page for this flight to view local times or setup timezone preferences in your user account.

Time Position Orientation Groundspeed Altitude Reporting Facility
EDT Latitude Longitude Course Direction KTS MPH feet Rate Location/Type
Thu 09:59:38 PM 42.2314 -83.3342 275° West 153 176 1,400  Level Cleveland Center
Thu 10:00:08 PM 42.2561 -83.3381 353° North 186 214 2,100 1,052 Climbing Cleveland Center
Thu 10:01:15 PM 42.3289 -83.3553 350° North 277 319 3,100 1,672 Climbing Cleveland Center
Thu 10:02:00 PM 42.3088 -83.7771 285° West  Level FlightAware Approximate
Thu 10:02:10 PM 42.3950 -83.3722 349° North 297 342 5,500  Level Cleveland Center
Thu 10:03:00 PM 42.3473 -83.9186 292° West  Level FlightAware Approximate
Thu 10:03:12 PM 42.4306 -83.4556 300° West 282 325 8,100  Level Cleveland Center
Thu 10:04:00 PM 42.3893 -84.0587 292° West  Level FlightAware Approximate
Thu 10:04:11 PM 42.4278 -83.5678 268° West 300 345 10,600  Level Cleveland Center
Thu 10:05:00 PM 42.4180 -84.2026 275° West  Level FlightAware Approximate
Thu 10:05:11 PM 42.4264 -83.6917 269° West 317 365 11,500  Level Cleveland Center
Thu 10:06:12 PM 42.4267 -83.8322 270° West 349 402 13,900 3,050 Climbing Cleveland Center
Thu 10:07:11 PM 42.4272 -83.9589 270° West 354 407 17,600 2,500 Climbing Cleveland Center
Thu 10:08:12 PM 42.4258 -84.0797 269° West 341 392 18,900 1,450 Climbing Cleveland Center
Thu 10:09:11 PM 42.4242 -84.2036 269° West 335 386 20,500 1,113 Climbing Cleveland Center
Thu 10:11:26 PM 42.4358 -84.4803 273° West 364 419 22,500 796 Climbing Chicago Center
Thu 10:12:27 PM 42.4411 -84.6694 272° West 413 475 23,100 1,317 Climbing Chicago Center
Thu 10:13:29 PM 42.4444 -84.8286 272° West 423 487 25,200 1,512 Climbing Chicago Center
Thu 10:14:30 PM 42.4472 -84.9881 271° West 423 487 26,200 1,463 Climbing Chicago Center
Thu 10:15:32 PM 42.4506 -85.1447 272° West 419 482 28,200 1,452 Climbing Chicago Center
Thu 10:16:34 PM 42.4531 -85.2969 271° West 409 471 29,200 878 Climbing Chicago Center
Thu 10:17:35 PM 42.4561 -85.4544 272° West 414 476 30,000 738 Climbing Chicago Center
Thu 10:18:36 PM 42.4586 -85.6131 271° West 419 482 30,700 732 Climbing Chicago Center
Thu 10:19:38 PM 42.4614 -85.7711 271° West 421 484 31,500 1,268 Climbing Chicago Center
Thu 10:20:39 PM 42.4631 -85.9250 271° West 410 472 33,300 976 Climbing Chicago Center
Thu 10:21:41 PM 42.4639 -86.1064 270° West 402 463 33,500 242 Climbing Chicago Center
Thu 10:22:43 PM 42.4450 -86.2606 261° West 414 476 33,800 195 Climbing Chicago Center
Thu 10:23:44 PM 42.4261 -86.4158 261° West 418 481 33,900 98 Climbing Chicago Center
Thu 10:24:46 PM 42.4056 -86.5747 260° West 426 490 34,000 48 Climbing Chicago Center
Thu 10:25:48 PM 42.3858 -86.7386 261° West 432 497 34,000  Level Chicago Center
Thu 10:26:49 PM 42.3669 -86.8964 261° West 429 494 34,000  Level Chicago Center
Thu 10:27:51 PM 42.3447 -87.0544 259° West 430 495 34,000  Level Chicago Center
Thu 10:28:52 PM 42.3219 -87.2108 259° West 428 493 34,000  Level Chicago Center
Thu 10:29:54 PM 42.2978 -87.4014 260° West 432 497 34,000  Level Chicago Center
Thu 10:30:56 PM 42.2753 -87.5597 259° West 430 495 34,000  Level Chicago Center
Thu 10:31:58 PM 42.2536 -87.7150 259° West 425 489 34,000  Level Chicago Center
Thu 10:33:00 PM 42.2322 -87.8722 260° West 427 491 34,000  Level Chicago Center
Thu 10:34:01 PM 42.2083 -88.0275 258° West 426 490 34,000  Level Chicago Center
Thu 10:35:03 PM 42.1750 -88.2111 256° West 423 487 34,000  Level Chicago Center
Thu 10:36:04 PM 42.1478 -88.3647 257° West 424 488 34,000  Level Chicago Center
Thu 10:37:06 PM 42.1211 -88.5150 257° West 420 483 34,000  Level Chicago Center
Thu 10:38:08 PM 42.0947 -88.6647 257° West 417 480 34,000  Level Chicago Center
Thu 10:39:09 PM 42.0667 -88.8147 256° West 418 481 34,000  Level Chicago Center
Thu 10:40:11 PM 42.0386 -88.9678 256° West 423 487 34,000  Level Chicago Center
Thu 10:41:12 PM 42.0058 -89.1494 256° West 423 487 34,000  Level Chicago Center
Thu 10:42:14 PM 41.9772 -89.3000 256° West 419 482 34,000  Level Chicago Center
Thu 10:43:15 PM 41.9494 -89.4511 256° West 420 483 34,000  Level Chicago Center
Thu 10:44:17 PM 41.9203 -89.6017 255° West 422 486 34,000  Level Chicago Center
Thu 10:45:19 PM 41.8925 -89.7506 256° West 417 480 34,000  Level Chicago Center
Thu 10:46:20 PM 41.8631 -89.9025 255° West 422 486 34,000  Level Chicago Center
Thu 10:47:22 PM 41.8344 -90.0572 256° West 426 490 34,000  Level Chicago Center
Thu 10:48:23 PM 41.7981 -90.2394 255° West 426 490 34,000  Level Chicago Center
Thu 10:49:25 PM 41.7689 -90.3872 255° West 424 488 34,000  Level Chicago Center
Thu 10:50:26 PM 41.7394 -90.5394 256° West 424 488 34,000  Level Chicago Center
Thu 10:51:28 PM 41.7081 -90.6953 255° West 427 491 34,000  Level Chicago Center
Thu 10:52:29 PM 41.6911 -90.8542 262° West 436 502 34,000  Level Chicago Center
Thu 10:53:30 PM 41.6772 -91.0103 263° West 428 493 34,000  Level Chicago Center
Thu 10:54:32 PM 41.6633 -91.1686 263° West 430 495 34,000  Level Chicago Center
Thu 10:55:33 PM 41.6489 -91.3269 263° West 431 496 34,000  Level Chicago Center
Thu 10:56:35 PM 41.6322 -91.5161 263° West 429 494 34,000  Level Chicago Center
Thu 10:57:36 PM 41.6181 -91.6722 263° West 426 490 34,000  Level Chicago Center
Thu 10:58:37 PM 41.6031 -91.8281 263° West 426 490 34,000  Level Chicago Center
Thu 10:59:39 PM 41.5881 -91.9825 263° West 424 488 34,000  Level Chicago Center
Thu 11:00:40 PM 41.5728 -92.1386 263° West 425 489 34,000  Level Chicago Center
Thu 11:01:42 PM 41.5569 -92.2906 262° West 420 483 34,000  Level Chicago Center
Thu 11:02:43 PM 41.5422 -92.4458 263° West 421 484 34,000  Level Chicago Center
Thu 11:03:44 PM 41.5261 -92.5997 262° West 421 484 34,000  Level Chicago Center
Thu 11:04:45 PM 41.5089 -92.7706 262° West 423 487 34,000  Level Chicago Center
Thu 11:05:46 PM 41.4931 -92.9275 262° West 427 491 34,000  Level Chicago Center
Thu 11:06:47 PM 41.4772 -93.0819 262° West 424 488 34,000  Level Chicago Center
Thu 11:07:48 PM 41.4594 -93.2378 261° West 429 494 34,000  Level Chicago Center
Thu 11:08:49 PM 41.4425 -93.3972 262° West 437 503 34,000 148 Level Chicago Center
Thu 11:09:50 PM 41.4219 -93.5881 262° West 437 503 34,300 836 Climbing Chicago Center
Thu 11:10:51 PM 41.4050 -93.7417 262° West 425 489 35,700 836 Climbing Chicago Center
Thu 11:11:52 PM 41.3883 -93.8872 261° West 405 466 36,000 148 Climbing Chicago Center
Thu 11:12:53 PM 41.3714 -94.0386 262° West 415 478 36,000  Level Chicago Center
Thu 11:13:54 PM 41.3536 -94.1897 261° West 417 480 36,000  Level Chicago Center
Thu 11:14:56 PM 41.3356 -94.3422 261° West 419 482 36,000  Level Chicago Center
Thu 11:15:57 PM 41.3164 -94.4944 261° West 421 484 36,000  Level Chicago Center
Thu 11:17:08 PM 41.2972 -94.6797 262° West 421 484 36,000  Level Minneapolis Center
Thu 11:18:09 PM 41.2822 -94.8011 261° West 418 481 36,000  Level Minneapolis Center
Thu 11:19:10 PM 41.2597 -94.9819 261° West 415 478 36,000  Level Minneapolis Center
Thu 11:20:12 PM 41.2414 -95.1344 261° West 416 479 36,000  Level Minneapolis Center
Thu 11:21:13 PM 41.2178 -95.3189 260° West 421 484 36,000  Level Minneapolis Center
Thu 11:22:14 PM 41.1972 -95.4744 260° West 425 489 36,000 49 Level Minneapolis Center
Thu 11:23:15 PM 41.1781 -95.6194 260° West 432 497 36,100 49 Climbing Minneapolis Center
Thu 11:24:16 PM 41.1592 -95.7764 261° West 431 496 36,100 -49 Level Minneapolis Center
Thu 11:25:17 PM 41.1392 -95.9314 260° West 428 493 36,000 -49 Descending Minneapolis Center
Thu 11:26:18 PM 41.1144 -96.1108 260° West 430 495 36,000  Level Minneapolis Center
Thu 11:27:19 PM 41.0936 -96.2644 260° West 429 494 36,000  Level Minneapolis Center
Thu 11:28:20 PM 41.0733 -96.4211 260° West 429 494 36,000  Level Minneapolis Center
Thu 11:29:21 PM 41.0508 -96.5781 259° West 430 495 36,000  Level Minneapolis Center
Thu 11:30:23 PM 41.0292 -96.7347 260° West 432 497 36,000 49 Level Minneapolis Center
Thu 11:31:24 PM 41.0075 -96.8914 260° West 432 497 36,100  Climbing Minneapolis Center
Thu 11:32:25 PM 40.9853 -97.0450 259° West 427 491 36,000 -49 Descending Minneapolis Center
Thu 11:33:26 PM 40.9633 -97.1983 259° West 424 488 36,000 -49 Level Minneapolis Center
Thu 11:34:27 PM 40.9408 -97.3514 259° West 424 488 35,900  Descending Minneapolis Center
Thu 11:35:28 PM 40.9172 -97.5175 259° West 430 495 36,000 49 Climbing Minneapolis Center
Thu 11:36:29 PM 40.8942 -97.6744 259° West 434 499 36,000  Level Minneapolis Center
Thu 11:37:30 PM 40.8706 -97.8333 259° West 438 504 36,000  Level Minneapolis Center
Thu 11:38:33 PM 40.8464 -97.9936 259° West 442 509 36,000  Level Minneapolis Center
Thu 11:39:34 PM 40.8225 -98.1539 259° West 443 510 36,000  Level Minneapolis Center
Thu 11:40:34 PM 40.7972 -98.3150 258° West 445 512 36,000  Level Minneapolis Center
Thu 11:41:35 PM 40.7697 -98.4939 259° West 445 512 36,000  Level Minneapolis Center
Thu 11:42:36 PM 40.7478 -98.6381 259° West 445 512 36,000  Level Minneapolis Center
Thu 11:43:37 PM 40.7219 -98.7992 258° West 445 512 36,000  Level Minneapolis Center
Thu 11:44:38 PM 40.6967 -98.9608 258° West 446 513 36,000  Level Minneapolis Center
Thu 11:45:39 PM 40.6658 -99.1556 258° West 448 516 36,000  Level Minneapolis Center
Thu 11:45:58 PM 40.6597 -99.1892 257° West 454 522 36,000  Level Denver Center
Thu 11:46:59 PM 40.6328 -99.3503 258° West 448 516 36,000  Level Denver Center
Thu 11:48:00 PM 40.6061 -99.5142 258° West 456 525 36,000  Level Denver Center
Thu 11:49:02 PM 40.5786 -99.6761 257° West 453 521 36,000  Level Denver Center
Thu 11:50:03 PM 40.5475 -99.8631 258° West 454 522 36,000  Level Denver Center
Thu 11:51:04 PM 40.5217 -100.0175 258° West 451 519 36,000  Level Denver Center
Thu 11:52:05 PM 40.4961 -100.1706 258° West 447 514 36,000  Level Denver Center
Thu 11:53:07 PM 40.4644 -100.3503 257° West 449 517 36,000  Level Denver Center
Thu 11:54:08 PM 40.4383 -100.5072 258° West 457 526 36,000  Level Denver Center
Thu 11:55:09 PM 40.4097 -100.6642 257° West 460 529 36,000  Level Denver Center
Thu 11:56:10 PM 40.3772 -100.8475 257° West 459 528 36,000 49 Level Denver Center
Thu 11:57:12 PM 40.3494 -101.0028 257° West 456 525 36,100  Climbing Denver Center
Thu 11:58:13 PM 40.3217 -101.1553 257° West 450 518 36,000 -98 Descending Denver Center
Thu 11:59:14 PM 40.2886 -101.3344 256° West 451 519 35,900  Descending Denver Center
Fri 12:00:15 AM 40.2611 -101.4878 257° West 451 519 36,000 49 Climbing Denver Center
Fri 12:01:17 AM 40.2281 -101.6697 257° West 459 528 36,000  Level Denver Center
Fri 12:02:18 AM 40.1986 -101.8239 256° West 457 526 36,000 49 Level Denver Center
Fri 12:03:19 AM 40.1703 -101.9772 256° West 453 521 36,100  Climbing Denver Center
Fri 12:04:21 AM 40.1364 -102.1547 256° West 450 518 36,000 -49 Descending Denver Center
Fri 12:05:22 AM 40.1089 -102.3067 257° West 449 517 36,000  Level Denver Center
Fri 12:06:23 AM 40.0742 -102.4844 256° West 452 520 36,000  Level Denver Center
Fri 12:07:24 AM 40.0444 -102.6392 256° West 458 527 36,000  Level Denver Center
Fri 12:08:25 AM 40.0114 -102.7950 255° West 457 526 36,000  Level Denver Center
Fri 12:09:26 AM 39.9808 -102.9553 256° West 453 521 36,000  Level Denver Center
Fri 12:10:28 AM 39.9506 -103.1128 256° West 446 513 36,000  Level Denver Center
Fri 12:11:29 AM 39.9172 -103.2706 255° West 448 516 36,000  Level Denver Center
Fri 12:12:30 AM 39.8856 -103.4281 255° West 447 514 36,000  Level Denver Center
Fri 12:13:31 AM 39.8544 -103.5856 256° West 446 513 36,000  Level Denver Center
Fri 12:14:32 AM 39.8225 -103.7400 255° West 439 505 36,000  Level Denver Center
Fri 12:15:33 AM 39.7911 -103.8986 256° West 446 513 36,000  Level Denver Center
Fri 12:16:35 AM 39.7525 -104.0794 255° West 441 507 36,000  Level Denver Center
Fri 12:18:56 AM 39.6769 -104.4353 255° West 442 509 36,000  Level Salt Lake Center
Fri 12:19:57 AM 39.6439 -104.5856 254° West 444 511 36,000  Level Salt Lake Center
Fri 12:20:58 AM 39.6069 -104.7558 254° West 445 512 36,000  Level Salt Lake Center
Fri 12:21:59 AM 39.5753 -104.8953 254° West 433 498 36,000  Level Salt Lake Center
Fri 12:23:00 AM 39.5461 -105.0347 255° West 424 488 36,000  Level Salt Lake Center
Fri 12:24:02 AM 39.5117 -105.2000 255° West 424 488 36,000  Level Salt Lake Center
Fri 12:25:03 AM 39.4803 -105.3442 254° West 429 494 36,000 49 Level Salt Lake Center
Fri 12:26:04 AM 39.4472 -105.4867 253° West 432 497 36,100  Climbing Salt Lake Center
Fri 12:27:05 AM 39.4106 -105.6511 254° West 429 494 36,000 -49 Descending Salt Lake Center
Fri 12:28:06 AM 39.3800 -105.7903 254° West 424 488 36,000  Level Salt Lake Center
Fri 12:29:07 AM 39.3406 -105.9586 253° West 433 498 36,000  Level Salt Lake Center
Fri 12:30:08 AM 39.3086 -106.1028 254° West 436 502 36,000  Level Salt Lake Center
Fri 12:31:10 AM 39.2767 -106.2472 254° West 438 504 36,000 49 Level Salt Lake Center
Fri 12:32:11 AM 39.2353 -106.4175 253° West 443 510 36,100  Climbing Salt Lake Center
Fri 12:33:12 AM 39.2031 -106.5606 254° West 437 503 36,000 -49 Descending Salt Lake Center
Fri 12:34:13 AM 39.1694 -106.7022 253° West 433 498 36,000  Level Salt Lake Center
Fri 12:35:14 AM 39.1300 -106.8661 253° West 429 494 36,000  Level Salt Lake Center
Fri 12:36:15 AM 39.0969 -107.0069 253° West 429 494 36,000  Level Salt Lake Center
Fri 12:37:16 AM 39.0581 -107.1719 253° West 430 495 36,000  Level Salt Lake Center
Fri 12:38:18 AM 39.0244 -107.3128 253° West 431 496 36,000 49 Level Salt Lake Center
Fri 12:39:19 AM 38.9886 -107.4553 252° West 435 501 36,100  Climbing Salt Lake Center
Fri 12:40:20 AM 38.9486 -107.6228 253° West 437 503 36,000 -73 Descending Salt Lake Center
Fri 12:40:41 AM 38.9358 -107.6717 251° West 434 499 36,000  Level Denver Center
Fri 12:41:42 AM 38.9008 -107.8131 252° West 433 498 36,000  Level Denver Center
Fri 12:42:43 AM 38.8606 -107.9792 253° West 435 501 36,000  Level Denver Center
Fri 12:43:44 AM 38.8236 -108.1233 252° West 441 507 36,000  Level Denver Center
Fri 12:44:45 AM 38.7889 -108.2653 253° West 437 503 36,000  Level Denver Center
Fri 12:46:26 AM 38.7233 -108.5231 252° West 434 499 36,000  Level Salt Lake Center
Fri 12:47:28 AM 38.6883 -108.6642 252° West 434 499 36,000  Level Salt Lake Center
Fri 12:48:29 AM 38.6517 -108.8050 252° West 434 499 36,000  Level Salt Lake Center
Fri 12:49:13 AM 38.6222 -108.9244 253° West 437 503 36,000  Level Denver Center
Fri 12:50:14 AM 38.5856 -109.0650 252° West 437 503 36,000  Level Denver Center
Fri 12:51:15 AM 38.5431 -109.2292 252° West 436 502 36,000  Level Denver Center
Fri 12:52:16 AM 38.5050 -109.3728 251° West 441 507 36,000  Level Denver Center
Fri 12:53:17 AM 38.4686 -109.5125 252° West 437 503 36,000  Level Denver Center
Fri 12:54:18 AM 38.4247 -109.6739 251° West 432 497 36,000  Level Denver Center
Fri 12:55:18 AM 38.3878 -109.8108 251° West 428 493 36,000  Level Denver Center
Fri 12:56:19 AM 38.3467 -109.9467 249° West 426 490 36,000  Level Denver Center
Fri 12:57:20 AM 38.2850 -110.0992 243° Southwest 434 499 36,000  Level Denver Center
Fri 12:58:21 AM 38.2317 -110.2297 243° Southwest 432 497 36,000  Level Denver Center
Fri 12:59:22 AM 38.1794 -110.3614 243° Southwest 435 501 36,000  Level Denver Center
Fri 01:00:23 AM 38.1178 -110.5128 243° Southwest 431 496 36,000  Level Denver Center
Fri 01:01:23 AM 38.0650 -110.6411 242° Southwest 429 494 36,000  Level Denver Center
Fri 01:02:24 AM 38.0117 -110.7692 242° Southwest 428 493 36,000  Level Denver Center
Fri 01:03:25 AM 37.9533 -110.9128 243° Southwest 425 489 36,000  Level Denver Center
Fri 01:04:26 AM 37.8986 -111.0456 242° Southwest 425 489 36,000  Level Denver Center
Fri 01:05:26 AM 37.8447 -111.1769 243° Southwest 422 486 36,000  Level Denver Center
Fri 01:05:46 AM 37.8222 -111.2294 242° Southwest 423 487 36,000 -74 Level Salt Lake Center
Fri 01:06:47 AM 37.7672 -111.3606 242° Southwest 423 487 35,900 -541 Descending Salt Lake Center
Fri 01:07:48 AM 37.7139 -111.4914 243° Southwest 420 483 34,900 -984 Descending Salt Lake Center
Fri 01:08:49 AM 37.6564 -111.6250 242° Southwest 428 493 33,900 -947 Descending Salt Lake Center
Fri 01:09:42 AM 37.6097 -111.7325 241° Southwest 435 501 33,100 -956 Descending Denver Center
Fri 01:10:42 AM 37.5533 -111.8675 242° Southwest 435 501 32,100 -545 Descending Denver Center
Fri 01:11:43 AM 37.4950 -112.0028 242° Southwest 439 505 32,000 -190 Descending Denver Center
Fri 01:12:48 AM 37.4261 -112.1625 242° Southwest 438 504 31,700 -614 Descending Los Angeles Center
Fri 01:13:50 AM 37.3653 -112.3008 241° Southwest 449 517 30,700 -905 Descending Los Angeles Center
Fri 01:14:54 AM 37.3053 -112.4425 242° Southwest 456 525 29,800 -960 Descending Salt Lake Center
Fri 01:15:55 AM 37.2428 -112.5833 241° Southwest 459 528 28,700 -992 Descending Salt Lake Center
Fri 01:16:55 AM 37.1839 -112.7200 242° Southwest 449 517 27,800 -950 Descending Salt Lake Center
Fri 01:17:55 AM 37.1233 -112.8550 241° Southwest 442 509 26,800 -992 Descending Los Angeles Center
Fri 01:18:56 AM 37.0619 -112.9953 241° Southwest 453 521 25,800 -984 Descending Los Angeles Center
Fri 01:19:57 AM 37.0011 -113.1328 241° Southwest 451 519 24,800 -927 Descending Los Angeles Center
Fri 01:20:59 AM 36.9383 -113.2742 241° Southwest 461 531 23,900 -927 Descending Los Angeles Center
Fri 01:22:00 AM 36.8769 -113.4117 241° Southwest 455 524 22,900 -1,082 Descending Los Angeles Center
Fri 01:23:01 AM 36.8042 -113.5756 241° Southwest 450 518 21,700 -1,220 Descending Los Angeles Center
Fri 01:24:03 AM 36.7422 -113.7106 240° Southwest 449 517 20,400 -1,512 Descending Los Angeles Center
Fri 01:25:04 AM 36.6811 -113.8475 241° Southwest 452 520 18,600 -1,672 Descending Los Angeles Center
Fri 01:26:05 AM 36.6203 -113.9811 240° Southwest 446 513 17,000 -1,672 Descending Los Angeles Center
Fri 01:27:06 AM 36.5619 -114.1094 241° Southwest 433 498 15,200 -1,610 Descending Los Angeles Center
Fri 01:28:08 AM 36.5083 -114.2278 241° Southwest 426 490 13,700 -1,723 Descending Los Angeles Center
Fri 01:28:47 AM 36.4669 -114.3319 244° Southwest 416 479 12,300 -1,574 Descending Los Angeles Center
Fri 01:29:09 AM 36.4500 -114.3528 225° Southwest 421 484 12,100 -217 Descending Los Angeles Center
Fri 01:30:10 AM 36.3917 -114.4767 240° Southwest 351 404 12,000 -102 Descending Los Angeles Center
Fri 01:31:07 AM 36.3128 -114.4942 190° South 307 353 11,900 -769 Descending Los Angeles Center
Fri 01:32:07 AM 36.2272 -114.4992 183° South 306 352 10,500 -1,438 Descending Los Angeles Center
Fri 01:33:08 AM 36.1439 -114.5036 182° South 299 344 9,000 -1,172 Descending Los Angeles Center
Fri 01:34:15 AM 36.1036 -114.5858 239° Southwest 284 327 8,000 -517 Descending Los Angeles Center
Fri 01:35:04 AM 36.0853 -114.6781 256° West 301 346 8,000 -165 Level Los Angeles Center
Fri 01:36:04 AM 36.0736 -114.7725 261° West 275 316 7,700 -300 Descending Los Angeles Center

Login

Don't have an account? Register now (free) for customized features, flight alerts, and more!